sensor_id;sensor_type;location;lat;lon;timestamp;P1;durP1;ratioP1;P2;durP2;ratioP2
46084;SDS011;31823;47.032;8.310;2022-09-09T00:04:31;3.25;;;1.55;;
46084;SDS011;31823;47.032;8.310;2022-09-09T00:07:00;2.70;;;1.65;;
46084;SDS011;31823;47.032;8.310;2022-09-09T00:09:57;2.67;;;1.40;;
46084;SDS011;31823;47.032;8.310;2022-09-09T00:21:10;2.78;;;1.27;;
46084;SDS011;31823;47.032;8.310;2022-09-09T00:23:43;6.43;;;1.50;;
46084;SDS011;31823;47.032;8.310;2022-09-09T00:28:57;2.67;;;1.35;;
46084;SDS011;31823;47.032;8.310;2022-09-09T00:31:37;3.65;;;1.42;;
46084;SDS011;31823;47.032;8.310;2022-09-09T00:34:13;1.38;;;1.20;;
46084;SDS011;31823;47.032;8.310;2022-09-09T00:36:48;2.85;;;1.77;;
46084;SDS011;31823;47.032;8.310;2022-09-09T00:42:17;2.65;;;1.67;;
46084;SDS011;31823;47.032;8.310;2022-09-09T00:47:39;3.05;;;1.63;;
46084;SDS011;31823;47.032;8.310;2022-09-09T00:56:00;2.95;;;1.40;;
46084;SDS011;31823;47.032;8.310;2022-09-09T00:58:38;4.50;;;1.42;;
46084;SDS011;31823;47.032;8.310;2022-09-09T01:01:04;2.47;;;1.50;;
46084;SDS011;31823;47.032;8.310;2022-09-09T01:06:02;3.40;;;1.60;;
46084;SDS011;31823;47.032;8.310;2022-09-09T01:09:04;6.85;;;1.90;;
46084;SDS011;31823;47.032;8.310;2022-09-09T01:17:07;4.25;;;1.70;;
46084;SDS011;31823;47.032;8.310;2022-09-09T01:27:41;1.63;;;1.20;;
46084;SDS011;31823;47.032;8.310;2022-09-09T01:30:10;2.20;;;1.20;;
46084;SDS011;31823;47.032;8.310;2022-09-09T01:38:05;1.80;;;1.58;;
46084;SDS011;31823;47.032;8.310;2022-09-09T01:40:31;3.85;;;1.17;;
46084;SDS011;31823;47.032;8.310;2022-09-09T01:42:57;6.97;;;2.28;;
46084;SDS011;31823;47.032;8.310;2022-09-09T01:45:23;1.08;;;1.05;;
46084;SDS011;31823;47.032;8.310;2022-09-09T01:47:50;4.57;;;1.08;;
46084;SDS011;31823;47.032;8.310;2022-09-09T01:50:17;5.97;;;1.58;;
46084;SDS011;31823;47.032;8.310;2022-09-09T01:52:44;2.65;;;1.50;;
46084;SDS011;31823;47.032;8.310;2022-09-09T01:55:12;4.55;;;1.50;;
46084;SDS011;31823;47.032;8.310;2022-09-09T01:57:39;3.80;;;1.95;;
46084;SDS011;31823;47.032;8.310;2022-09-09T02:00:21;6.57;;;1.75;;
46084;SDS011;31823;47.032;8.310;2022-09-09T02:06:08;3.20;;;1.92;;
46084;SDS011;31823;47.032;8.310;2022-09-09T02:08:47;3.42;;;1.92;;
46084;SDS011;31823;47.032;8.310;2022-09-09T02:11:16;3.70;;;1.60;;
46084;SDS011;31823;47.032;8.310;2022-09-09T02:13:43;5.30;;;1.90;;
46084;SDS011;31823;47.032;8.310;2022-09-09T02:16:12;6.38;;;1.48;;
46084;SDS011;31823;47.032;8.310;2022-09-09T02:21:28;1.90;;;1.38;;
46084;SDS011;31823;47.032;8.310;2022-09-09T02:23:56;3.35;;;1.52;;
46084;SDS011;31823;47.032;8.310;2022-09-09T02:26:25;2.83;;;1.40;;
46084;SDS011;31823;47.032;8.310;2022-09-09T02:28:52;3.33;;;1.50;;
46084;SDS011;31823;47.032;8.310;2022-09-09T02:31:22;2.53;;;1.55;;
46084;SDS011;31823;47.032;8.310;2022-09-09T02:33:51;2.33;;;1.60;;
46084;SDS011;31823;47.032;8.310;2022-09-09T02:36:20;5.72;;;1.30;;
46084;SDS011;31823;47.032;8.310;2022-09-09T02:38:48;6.57;;;1.50;;
46084;SDS011;31823;47.032;8.310;2022-09-09T02:41:19;2.70;;;1.40;;
46084;SDS011;31823;47.032;8.310;2022-09-09T02:43:47;1.40;;;1.30;;
46084;SDS011;31823;47.032;8.310;2022-09-09T02:46:24;3.50;;;1.50;;
46084;SDS011;31823;47.032;8.310;2022-09-09T02:49:37;5.13;;;1.60;;
46084;SDS011;31823;47.032;8.310;2022-09-09T02:51:51;3.72;;;1.90;;
46084;SDS011;31823;47.032;8.310;2022-09-09T02:54:37;4.95;;;2.00;;
46084;SDS011;31823;47.032;8.310;2022-09-09T02:57:06;2.92;;;1.70;;
46084;SDS011;31823;47.032;8.310;2022-09-09T02:59:53;2.85;;;1.60;;
46084;SDS011;31823;47.032;8.310;2022-09-09T03:02:21;4.60;;;1.70;;
46084;SDS011;31823;47.032;8.310;2022-09-09T03:04:47;3.28;;;1.30;;
46084;SDS011;31823;47.032;8.310;2022-09-09T03:07:16;1.60;;;1.40;;
46084;SDS011;31823;47.032;8.310;2022-09-09T03:09:43;2.97;;;1.50;;
46084;SDS011;31823;47.032;8.310;2022-09-09T03:12:09;2.13;;;1.52;;
46084;SDS011;31823;47.032;8.310;2022-09-09T03:14:36;2.63;;;1.50;;
46084;SDS011;31823;47.032;8.310;2022-09-09T03:17:03;3.13;;;1.65;;
46084;SDS011;31823;47.032;8.310;2022-09-09T03:19:29;2.72;;;1.55;;
46084;SDS011;31823;47.032;8.310;2022-09-09T03:21:55;2.10;;;1.38;;
46084;SDS011;31823;47.032;8.310;2022-09-09T03:24:21;5.93;;;1.70;;
46084;SDS011;31823;47.032;8.310;2022-09-09T03:26:47;4.13;;;1.67;;
46084;SDS011;31823;47.032;8.310;2022-09-09T03:29:15;4.65;;;2.33;;
46084;SDS011;31823;47.032;8.310;2022-09-09T03:31:42;4.25;;;1.85;;
46084;SDS011;31823;47.032;8.310;2022-09-09T03:34:08;5.55;;;1.50;;
46084;SDS011;31823;47.032;8.310;2022-09-09T03:36:33;9.40;;;1.70;;
46084;SDS011;31823;47.032;8.310;2022-09-09T03:38:59;4.00;;;2.15;;
46084;SDS011;31823;47.032;8.310;2022-09-09T03:41:26;3.47;;;2.00;;
46084;SDS011;31823;47.032;8.310;2022-09-09T03:43:52;5.68;;;2.03;;
46084;SDS011;31823;47.032;8.310;2022-09-09T03:46:19;3.78;;;2.15;;
46084;SDS011;31823;47.032;8.310;2022-09-09T03:48:46;3.00;;;2.08;;
46084;SDS011;31823;47.032;8.310;2022-09-09T03:51:12;9.65;;;3.00;;
46084;SDS011;31823;47.032;8.310;2022-09-09T03:53:38;3.78;;;2.20;;
46084;SDS011;31823;47.032;8.310;2022-09-09T03:56:04;4.93;;;2.10;;
46084;SDS011;31823;47.032;8.310;2022-09-09T03:58:31;5.38;;;1.90;;
46084;SDS011;31823;47.032;8.310;2022-09-09T04:00:59;3.78;;;2.10;;
46084;SDS011;31823;47.032;8.310;2022-09-09T04:03:27;5.15;;;2.10;;
46084;SDS011;31823;47.032;8.310;2022-09-09T04:05:54;4.78;;;2.30;;
46084;SDS011;31823;47.032;8.310;2022-09-09T04:08:22;3.65;;;2.45;;
46084;SDS011;31823;47.032;8.310;2022-09-09T04:10:50;2.92;;;2.38;;
46084;SDS011;31823;47.032;8.310;2022-09-09T04:13:16;7.50;;;3.33;;
46084;SDS011;31823;47.032;8.310;2022-09-09T04:15:44;5.60;;;2.70;;
46084;SDS011;31823;47.032;8.310;2022-09-09T04:18:16;4.65;;;3.13;;
46084;SDS011;31823;47.032;8.310;2022-09-09T04:20:41;5.25;;;2.90;;
46084;SDS011;31823;47.032;8.310;2022-09-09T04:23:08;3.90;;;3.03;;
46084;SDS011;31823;47.032;8.310;2022-09-09T04:25:34;5.55;;;3.30;;
46084;SDS011;31823;47.032;8.310;2022-09-09T04:27:59;4.35;;;3.10;;
46084;SDS011;31823;47.032;8.310;2022-09-09T04:30:25;4.50;;;2.80;;
46084;SDS011;31823;47.032;8.310;2022-09-09T04:32:52;5.32;;;2.92;;
46084;SDS011;31823;47.032;8.310;2022-09-09T04:35:18;6.10;;;3.38;;
46084;SDS011;31823;47.032;8.310;2022-09-09T04:37:45;4.40;;;3.17;;
46084;SDS011;31823;47.032;8.310;2022-09-09T04:40:10;3.63;;;3.08;;
46084;SDS011;31823;47.032;8.310;2022-09-09T04:42:36;7.97;;;3.60;;
46084;SDS011;31823;47.032;8.310;2022-09-09T04:45:02;10.48;;;3.00;;
46084;SDS011;31823;47.032;8.310;2022-09-09T04:47:28;4.60;;;3.40;;
46084;SDS011;31823;47.032;8.310;2022-09-09T04:49:54;6.68;;;3.22;;
46084;SDS011;31823;47.032;8.310;2022-09-09T04:52:20;6.70;;;3.30;;
46084;SDS011;31823;47.032;8.310;2022-09-09T04:54:46;4.72;;;3.15;;
46084;SDS011;31823;47.032;8.310;2022-09-09T04:57:12;3.47;;;3.05;;
46084;SDS011;31823;47.032;8.310;2022-09-09T04:59:38;5.72;;;3.35;;
46084;SDS011;31823;47.032;8.310;2022-09-09T05:02:04;5.18;;;3.40;;
46084;SDS011;31823;47.032;8.310;2022-09-09T05:04:30;4.30;;;3.00;;
46084;SDS011;31823;47.032;8.310;2022-09-09T05:06:56;4.88;;;2.97;;
46084;SDS011;31823;47.032;8.310;2022-09-09T05:09:22;4.15;;;2.60;;
46084;SDS011;31823;47.032;8.310;2022-09-09T05:11:47;4.35;;;3.05;;
46084;SDS011;31823;47.032;8.310;2022-09-09T05:14:13;5.25;;;2.70;;
46084;SDS011;31823;47.032;8.310;2022-09-09T05:16:39;5.63;;;3.25;;
46084;SDS011;31823;47.032;8.310;2022-09-09T05:19:05;4.93;;;2.65;;
46084;SDS011;31823;47.032;8.310;2022-09-09T05:21:33;5.95;;;2.47;;
46084;SDS011;31823;47.032;8.310;2022-09-09T05:23:58;3.20;;;2.70;;
46084;SDS011;31823;47.032;8.310;2022-09-09T05:26:25;6.93;;;3.10;;
46084;SDS011;31823;47.032;8.310;2022-09-09T05:28:51;5.25;;;3.83;;
46084;SDS011;31823;47.032;8.310;2022-09-09T05:31:17;4.65;;;2.80;;
46084;SDS011;31823;47.032;8.310;2022-09-09T05:33:44;4.20;;;2.78;;
46084;SDS011;31823;47.032;8.310;2022-09-09T05:36:20;3.90;;;3.45;;
46084;SDS011;31823;47.032;8.310;2022-09-09T05:38:47;4.63;;;3.13;;
46084;SDS011;31823;47.032;8.310;2022-09-09T05:41:14;3.47;;;2.90;;
46084;SDS011;31823;47.032;8.310;2022-09-09T05:43:41;3.90;;;3.22;;
46084;SDS011;31823;47.032;8.310;2022-09-09T05:46:13;4.72;;;3.20;;
46084;SDS011;31823;47.032;8.310;2022-09-09T05:48:41;6.35;;;3.22;;
46084;SDS011;31823;47.032;8.310;2022-09-09T05:51:12;6.28;;;4.00;;
46084;SDS011;31823;47.032;8.310;2022-09-09T05:53:42;6.80;;;3.55;;
46084;SDS011;31823;47.032;8.310;2022-09-09T05:56:13;3.60;;;2.92;;
46084;SDS011;31823;47.032;8.310;2022-09-09T05:58:43;4.95;;;3.53;;
46084;SDS011;31823;47.032;8.310;2022-09-09T06:01:10;5.68;;;3.05;;
46084;SDS011;31823;47.032;8.310;2022-09-09T06:03:38;3.42;;;2.90;;
46084;SDS011;31823;47.032;8.310;2022-09-09T06:06:05;7.45;;;3.40;;
46084;SDS011;31823;47.032;8.310;2022-09-09T06:08:33;4.90;;;3.28;;
46084;SDS011;31823;47.032;8.310;2022-09-09T06:11:05;4.22;;;3.22;;
46084;SDS011;31823;47.032;8.310;2022-09-09T06:13:33;4.13;;;3.03;;
46084;SDS011;31823;47.032;8.310;2022-09-09T06:16:00;4.47;;;3.20;;
46084;SDS011;31823;47.032;8.310;2022-09-09T06:18:26;4.63;;;3.05;;
46084;SDS011;31823;47.032;8.310;2022-09-09T06:20:55;3.88;;;3.08;;
46084;SDS011;31823;47.032;8.310;2022-09-09T06:23:20;4.00;;;2.85;;
46084;SDS011;31823;47.032;8.310;2022-09-09T06:25:46;6.15;;;3.20;;
46084;SDS011;31823;47.032;8.310;2022-09-09T06:28:13;5.75;;;3.10;;
46084;SDS011;31823;47.032;8.310;2022-09-09T06:30:40;4.32;;;3.15;;
46084;SDS011;31823;47.032;8.310;2022-09-09T06:33:06;5.75;;;3.45;;
46084;SDS011;31823;47.032;8.310;2022-09-09T06:35:32;4.13;;;2.83;;
46084;SDS011;31823;47.032;8.310;2022-09-09T06:37:57;4.85;;;3.13;;
46084;SDS011;31823;47.032;8.310;2022-09-09T06:40:23;3.92;;;2.90;;
46084;SDS011;31823;47.032;8.310;2022-09-09T06:42:49;14.00;;;2.97;;
46084;SDS011;31823;47.032;8.310;2022-09-09T06:45:15;4.13;;;3.00;;
46084;SDS011;31823;47.032;8.310;2022-09-09T06:47:41;7.47;;;4.25;;
46084;SDS011;31823;47.032;8.310;2022-09-09T06:50:08;5.18;;;3.15;;
46084;SDS011;31823;47.032;8.310;2022-09-09T06:52:35;6.35;;;3.78;;
46084;SDS011;31823;47.032;8.310;2022-09-09T06:55:01;5.13;;;3.30;;
46084;SDS011;31823;47.032;8.310;2022-09-09T06:57:27;4.53;;;2.88;;
46084;SDS011;31823;47.032;8.310;2022-09-09T06:59:53;4.72;;;2.88;;
46084;SDS011;31823;47.032;8.310;2022-09-09T07:02:18;4.90;;;2.53;;
46084;SDS011;31823;47.032;8.310;2022-09-09T07:04:45;4.30;;;2.67;;
46084;SDS011;31823;47.032;8.310;2022-09-09T07:07:10;4.95;;;2.80;;
46084;SDS011;31823;47.032;8.310;2022-09-09T07:09:38;3.17;;;2.60;;
46084;SDS011;31823;47.032;8.310;2022-09-09T07:12:05;4.25;;;2.70;;
46084;SDS011;31823;47.032;8.310;2022-09-09T07:14:31;5.40;;;2.70;;
46084;SDS011;31823;47.032;8.310;2022-09-09T07:16:58;5.38;;;3.00;;
46084;SDS011;31823;47.032;8.310;2022-09-09T07:19:25;9.20;;;2.80;;
46084;SDS011;31823;47.032;8.310;2022-09-09T07:21:50;3.28;;;2.70;;
46084;SDS011;31823;47.032;8.310;2022-09-09T07:24:16;4.95;;;2.83;;
46084;SDS011;31823;47.032;8.310;2022-09-09T07:26:42;3.83;;;2.83;;
46084;SDS011;31823;47.032;8.310;2022-09-09T07:29:09;4.57;;;2.35;;
46084;SDS011;31823;47.032;8.310;2022-09-09T07:31:35;5.38;;;3.47;;
46084;SDS011;31823;47.032;8.310;2022-09-09T07:34:03;7.10;;;3.30;;
46084;SDS011;31823;47.032;8.310;2022-09-09T07:36:30;5.60;;;3.47;;
46084;SDS011;31823;47.032;8.310;2022-09-09T07:38:58;5.30;;;3.17;;
46084;SDS011;31823;47.032;8.310;2022-09-09T07:41:29;5.47;;;3.00;;
46084;SDS011;31823;47.032;8.310;2022-09-09T07:44:05;6.35;;;3.38;;
46084;SDS011;31823;47.032;8.310;2022-09-09T07:46:32;5.25;;;2.78;;
46084;SDS011;31823;47.032;8.310;2022-09-09T07:48:58;5.80;;;3.30;;
46084;SDS011;31823;47.032;8.310;2022-09-09T07:51:27;4.88;;;3.80;;
46084;SDS011;31823;47.032;8.310;2022-09-09T07:53:55;6.05;;;3.22;;
46084;SDS011;31823;47.032;8.310;2022-09-09T07:56:23;3.58;;;3.08;;
46084;SDS011;31823;47.032;8.310;2022-09-09T07:58:50;5.90;;;2.90;;
46084;SDS011;31823;47.032;8.310;2022-09-09T08:01:22;5.10;;;3.47;;
46084;SDS011;31823;47.032;8.310;2022-09-09T08:03:54;4.43;;;3.08;;
46084;SDS011;31823;47.032;8.310;2022-09-09T08:06:24;3.47;;;3.17;;
46084;SDS011;31823;47.032;8.310;2022-09-09T08:08:51;2.90;;;2.65;;
46084;SDS011;31823;47.032;8.310;2022-09-09T08:11:18;7.53;;;2.72;;
46084;SDS011;31823;47.032;8.310;2022-09-09T08:13:44;2.40;;;2.15;;
46084;SDS011;31823;47.032;8.310;2022-09-09T08:16:14;2.85;;;2.15;;
46084;SDS011;31823;47.032;8.310;2022-09-09T08:18:46;5.03;;;2.45;;
46084;SDS011;31823;47.032;8.310;2022-09-09T08:21:13;2.08;;;1.70;;
46084;SDS011;31823;47.032;8.310;2022-09-09T08:23:43;3.55;;;2.25;;
46084;SDS011;31823;47.032;8.310;2022-09-09T08:26:18;2.25;;;1.63;;
46084;SDS011;31823;47.032;8.310;2022-09-09T08:28:47;2.28;;;1.98;;
46084;SDS011;31823;47.032;8.310;2022-09-09T08:31:18;1.98;;;1.88;;
46084;SDS011;31823;47.032;8.310;2022-09-09T08:33:46;7.40;;;1.60;;
46084;SDS011;31823;47.032;8.310;2022-09-09T08:36:16;2.72;;;1.63;;
46084;SDS011;31823;47.032;8.310;2022-09-09T08:38:46;2.05;;;1.50;;
46084;SDS011;31823;47.032;8.310;2022-09-09T08:52:22;3.55;;;1.42;;
46084;SDS011;31823;47.032;8.310;2022-09-09T08:54:49;3.13;;;1.42;;
46084;SDS011;31823;47.032;8.310;2022-09-09T08:57:19;2.47;;;1.40;;
46084;SDS011;31823;47.032;8.310;2022-09-09T08:59:53;2.75;;;1.50;;
46084;SDS011;31823;47.032;8.310;2022-09-09T09:02:42;1.73;;;1.63;;
46084;SDS011;31823;47.032;8.310;2022-09-09T09:05:22;3.33;;;1.80;;
46084;SDS011;31823;47.032;8.310;2022-09-09T09:10:48;2.10;;;1.33;;
46084;SDS011;31823;47.032;8.310;2022-09-09T09:13:20;2.00;;;1.30;;
46084;SDS011;31823;47.032;8.310;2022-09-09T09:15:58;4.90;;;1.77;;
46084;SDS011;31823;47.032;8.310;2022-09-09T09:18:47;4.05;;;1.90;;
46084;SDS011;31823;47.032;8.310;2022-09-09T09:21:34;1.98;;;1.70;;
46084;SDS011;31823;47.032;8.310;2022-09-09T09:26:51;3.80;;;2.03;;
46084;SDS011;31823;47.032;8.310;2022-09-09T09:29:18;6.68;;;1.88;;
46084;SDS011;31823;47.032;8.310;2022-09-09T09:31:48;3.35;;;1.40;;
46084;SDS011;31823;47.032;8.310;2022-09-09T09:34:17;2.90;;;1.88;;
46084;SDS011;31823;47.032;8.310;2022-09-09T09:36:43;3.75;;;1.70;;
46084;SDS011;31823;47.032;8.310;2022-09-09T09:39:23;2.20;;;1.90;;
46084;SDS011;31823;47.032;8.310;2022-09-09T09:42:14;1.40;;;1.00;;
46084;SDS011;31823;47.032;8.310;2022-09-09T09:44:42;2.78;;;1.08;;
46084;SDS011;31823;47.032;8.310;2022-09-09T09:47:13;1.10;;;1.10;;
46084;SDS011;31823;47.032;8.310;2022-09-09T09:52:23;1.65;;;1.38;;
46084;SDS011;31823;47.032;8.310;2022-09-09T09:54:50;2.58;;;1.27;;
46084;SDS011;31823;47.032;8.310;2022-09-09T09:57:17;1.48;;;1.17;;
46084;SDS011;31823;47.032;8.310;2022-09-09T09:59:48;1.60;;;1.20;;
46084;SDS011;31823;47.032;8.310;2022-09-09T10:04:42;2.22;;;1.40;;
46084;SDS011;31823;47.032;8.310;2022-09-09T10:07:17;1.23;;;0.93;;
46084;SDS011;31823;47.032;8.310;2022-09-09T10:09:44;3.30;;;1.17;;
46084;SDS011;31823;47.032;8.310;2022-09-09T10:37:35;1.17;;;0.90;;
46084;SDS011;31823;47.032;8.310;2022-09-09T10:40:25;3.05;;;1.15;;
46084;SDS011;31823;47.032;8.310;2022-09-09T10:43:03;2.03;;;1.17;;
46084;SDS011;31823;47.032;8.310;2022-09-09T10:48:08;1.60;;;1.23;;
46084;SDS011;31823;47.032;8.310;2022-09-09T10:56:04;1.00;;;1.00;;
46084;SDS011;31823;47.032;8.310;2022-09-09T10:59:05;1.65;;;1.20;;
46084;SDS011;31823;47.032;8.310;2022-09-09T11:01:32;1.60;;;1.15;;
46084;SDS011;31823;47.032;8.310;2022-09-09T11:04:15;1.80;;;1.27;;
46084;SDS011;31823;47.032;8.310;2022-09-09T11:06:53;1.23;;;0.85;;
46084;SDS011;31823;47.032;8.310;2022-09-09T11:09:31;1.15;;;1.00;;
46084;SDS011;31823;47.032;8.310;2022-09-09T11:12:02;1.70;;;0.90;;
46084;SDS011;31823;47.032;8.310;2022-09-09T11:14:36;1.15;;;1.08;;
46084;SDS011;31823;47.032;8.310;2022-09-09T11:17:16;1.20;;;1.10;;
46084;SDS011;31823;47.032;8.310;2022-09-09T11:19:45;1.35;;;1.02;;
46084;SDS011;31823;47.032;8.310;2022-09-09T11:28:01;2.90;;;1.10;;
46084;SDS011;31823;47.032;8.310;2022-09-09T11:41:16;1.45;;;1.02;;
46084;SDS011;31823;47.032;8.310;2022-09-09T11:43:46;1.60;;;1.20;;
46084;SDS011;31823;47.032;8.310;2022-09-09T11:46:14;1.75;;;1.23;;
46084;SDS011;31823;47.032;8.310;2022-09-09T11:48:43;2.08;;;1.40;;
46084;SDS011;31823;47.032;8.310;2022-09-09T11:51:34;1.95;;;1.20;;
46084;SDS011;31823;47.032;8.310;2022-09-09T11:56:48;1.30;;;1.15;;
46084;SDS011;31823;47.032;8.310;2022-09-09T11:59:21;1.25;;;1.15;;
46084;SDS011;31823;47.032;8.310;2022-09-09T12:07:52;2.80;;;1.60;;
46084;SDS011;31823;47.032;8.310;2022-09-09T12:10:27;1.92;;;1.20;;
46084;SDS011;31823;47.032;8.310;2022-09-09T12:16:02;1.65;;;1.20;;
46084;SDS011;31823;47.032;8.310;2022-09-09T12:18:37;3.20;;;1.50;;
46084;SDS011;31823;47.032;8.310;2022-09-09T12:24:00;1.80;;;1.30;;
46084;SDS011;31823;47.032;8.310;2022-09-09T12:32:26;2.57;;;1.20;;
46084;SDS011;31823;47.032;8.310;2022-09-09T12:37:11;3.67;;;1.52;;
46084;SDS011;31823;47.032;8.310;2022-09-09T12:39:41;1.88;;;1.40;;
46084;SDS011;31823;47.032;8.310;2022-09-09T12:42:32;2.83;;;1.40;;
46084;SDS011;31823;47.032;8.310;2022-09-09T12:45:01;1.63;;;1.40;;
46084;SDS011;31823;47.032;8.310;2022-09-09T12:47:34;4.32;;;1.35;;
46084;SDS011;31823;47.032;8.310;2022-09-09T12:50:23;1.42;;;1.33;;
46084;SDS011;31823;47.032;8.310;2022-09-09T12:52:52;2.85;;;1.50;;
46084;SDS011;31823;47.032;8.310;2022-09-09T12:55:33;1.70;;;1.40;;
46084;SDS011;31823;47.032;8.310;2022-09-09T12:58:01;3.53;;;2.05;;
46084;SDS011;31823;47.032;8.310;2022-09-09T13:00:32;2.35;;;1.92;;
46084;SDS011;31823;47.032;8.310;2022-09-09T13:03:03;2.15;;;1.90;;
46084;SDS011;31823;47.032;8.310;2022-09-09T13:05:41;4.60;;;1.55;;
46084;SDS011;31823;47.032;8.310;2022-09-09T13:08:11;1.52;;;1.30;;
46084;SDS011;31823;47.032;8.310;2022-09-09T13:10:51;1.95;;;1.23;;
46084;SDS011;31823;47.032;8.310;2022-09-09T13:13:26;1.23;;;1.13;;
46084;SDS011;31823;47.032;8.310;2022-09-09T13:16:00;3.65;;;1.20;;
46084;SDS011;31823;47.032;8.310;2022-09-09T13:18:30;3.08;;;1.00;;
46084;SDS011;31823;47.032;8.310;2022-09-09T13:20:59;3.03;;;1.17;;
46084;SDS011;31823;47.032;8.310;2022-09-09T13:23:29;3.10;;;1.65;;
46084;SDS011;31823;47.032;8.310;2022-09-09T13:25:58;2.97;;;1.55;;
46084;SDS011;31823;47.032;8.310;2022-09-09T13:28:26;2.45;;;1.27;;
46084;SDS011;31823;47.032;8.310;2022-09-09T13:30:58;3.38;;;1.23;;
46084;SDS011;31823;47.032;8.310;2022-09-09T13:33:38;4.30;;;1.30;;
46084;SDS011;31823;47.032;8.310;2022-09-09T13:36:06;3.47;;;1.30;;
46084;SDS011;31823;47.032;8.310;2022-09-09T13:38:35;3.47;;;1.38;;
46084;SDS011;31823;47.032;8.310;2022-09-09T13:41:22;1.73;;;1.35;;
46084;SDS011;31823;47.032;8.310;2022-09-09T13:43:50;2.33;;;1.75;;
46084;SDS011;31823;47.032;8.310;2022-09-09T13:51:40;1.65;;;1.15;;
46084;SDS011;31823;47.032;8.310;2022-09-09T13:54:10;1.60;;;1.25;;
46084;SDS011;31823;47.032;8.310;2022-09-09T13:56:38;1.27;;;1.17;;
46084;SDS011;31823;47.032;8.310;2022-09-09T13:59:06;5.35;;;1.10;;
46084;SDS011;31823;47.032;8.310;2022-09-09T14:01:36;2.35;;;0.85;;
46084;SDS011;31823;47.032;8.310;2022-09-09T14:04:02;1.85;;;1.27;;
46084;SDS011;31823;47.032;8.310;2022-09-09T14:06:30;2.60;;;1.23;;
46084;SDS011;31823;47.032;8.310;2022-09-09T14:08:57;2.58;;;0.98;;
46084;SDS011;31823;47.032;8.310;2022-09-09T14:11:23;1.58;;;0.95;;
46084;SDS011;31823;47.032;8.310;2022-09-09T14:13:49;1.23;;;0.98;;
46084;SDS011;31823;47.032;8.310;2022-09-09T14:16:15;1.60;;;1.00;;
46084;SDS011;31823;47.032;8.310;2022-09-09T14:18:42;1.95;;;1.15;;
46084;SDS011;31823;47.032;8.310;2022-09-09T14:21:09;1.40;;;1.02;;
46084;SDS011;31823;47.032;8.310;2022-09-09T14:23:34;1.30;;;0.85;;
46084;SDS011;31823;47.032;8.310;2022-09-09T14:26:00;1.80;;;1.00;;
46084;SDS011;31823;47.032;8.310;2022-09-09T14:28:26;1.52;;;1.10;;
46084;SDS011;31823;47.032;8.310;2022-09-09T14:30:53;1.30;;;0.90;;
46084;SDS011;31823;47.032;8.310;2022-09-09T14:33:18;2.33;;;0.70;;
46084;SDS011;31823;47.032;8.310;2022-09-09T14:35:44;0.70;;;0.70;;
46084;SDS011;31823;47.032;8.310;2022-09-09T14:38:10;0.70;;;0.70;;
46084;SDS011;31823;47.032;8.310;2022-09-09T14:40:36;2.17;;;0.90;;
46084;SDS011;31823;47.032;8.310;2022-09-09T14:43:05;0.70;;;0.70;;
46084;SDS011;31823;47.032;8.310;2022-09-09T14:45:31;1.45;;;0.80;;
46084;SDS011;31823;47.032;8.310;2022-09-09T14:47:57;0.85;;;0.80;;
46084;SDS011;31823;47.032;8.310;2022-09-09T14:50:22;1.90;;;0.80;;
46084;SDS011;31823;47.032;8.310;2022-09-09T14:52:49;1.30;;;0.90;;
46084;SDS011;31823;47.032;8.310;2022-09-09T14:55:15;1.17;;;0.80;;
46084;SDS011;31823;47.032;8.310;2022-09-09T14:57:42;0.90;;;0.77;;
46084;SDS011;31823;47.032;8.310;2022-09-09T15:00:08;0.85;;;0.73;;
46084;SDS011;31823;47.032;8.310;2022-09-09T15:02:36;1.83;;;0.88;;
46084;SDS011;31823;47.032;8.310;2022-09-09T15:05:01;1.25;;;0.60;;
46084;SDS011;31823;47.032;8.310;2022-09-09T15:07:28;2.90;;;0.70;;
46084;SDS011;31823;47.032;8.310;2022-09-09T15:09:54;0.70;;;0.70;;
46084;SDS011;31823;47.032;8.310;2022-09-09T15:12:20;1.95;;;0.70;;
46084;SDS011;31823;47.032;8.310;2022-09-09T15:14:46;1.60;;;1.05;;
46084;SDS011;31823;47.032;8.310;2022-09-09T15:17:12;3.40;;;0.70;;
46084;SDS011;31823;47.032;8.310;2022-09-09T15:19:38;1.00;;;0.80;;
46084;SDS011;31823;47.032;8.310;2022-09-09T15:22:04;3.38;;;0.85;;
46084;SDS011;31823;47.032;8.310;2022-09-09T15:24:33;1.98;;;1.20;;
46084;SDS011;31823;47.032;8.310;2022-09-09T15:27:00;2.15;;;0.82;;
46084;SDS011;31823;47.032;8.310;2022-09-09T15:29:26;2.70;;;0.75;;
46084;SDS011;31823;47.032;8.310;2022-09-09T15:31:55;1.52;;;0.70;;
46084;SDS011;31823;47.032;8.310;2022-09-09T15:34:21;1.77;;;0.70;;
46084;SDS011;31823;47.032;8.310;2022-09-09T15:36:47;3.90;;;0.90;;
46084;SDS011;31823;47.032;8.310;2022-09-09T15:39:14;2.45;;;0.75;;
46084;SDS011;31823;47.032;8.310;2022-09-09T15:41:42;1.02;;;0.70;;
46084;SDS011;31823;47.032;8.310;2022-09-09T15:44:09;3.28;;;1.15;;
46084;SDS011;31823;47.032;8.310;2022-09-09T15:46:49;1.15;;;0.60;;
46084;SDS011;31823;47.032;8.310;2022-09-09T15:49:16;1.30;;;0.80;;
46084;SDS011;31823;47.032;8.310;2022-09-09T15:51:44;3.40;;;0.70;;
46084;SDS011;31823;47.032;8.310;2022-09-09T15:54:15;0.85;;;0.65;;
46084;SDS011;31823;47.032;8.310;2022-09-09T15:56:43;2.75;;;0.70;;
46084;SDS011;31823;47.032;8.310;2022-09-09T15:59:10;0.60;;;0.60;;
46084;SDS011;31823;47.032;8.310;2022-09-09T16:01:36;2.35;;;0.80;;
46084;SDS011;31823;47.032;8.310;2022-09-09T16:04:04;2.38;;;0.80;;
46084;SDS011;31823;47.032;8.310;2022-09-09T16:06:31;1.30;;;0.70;;
46084;SDS011;31823;47.032;8.310;2022-09-09T16:08:58;0.70;;;0.70;;
46084;SDS011;31823;47.032;8.310;2022-09-09T16:11:27;2.13;;;0.60;;
46084;SDS011;31823;47.032;8.310;2022-09-09T16:13:57;2.65;;;0.60;;
46084;SDS011;31823;47.032;8.310;2022-09-09T16:16:24;2.00;;;0.77;;
46084;SDS011;31823;47.032;8.310;2022-09-09T16:18:52;0.70;;;0.70;;
46084;SDS011;31823;47.032;8.310;2022-09-09T16:21:23;0.98;;;0.90;;
46084;SDS011;31823;47.032;8.310;2022-09-09T16:23:51;0.80;;;0.80;;
46084;SDS011;31823;47.032;8.310;2022-09-09T16:26:21;1.08;;;0.60;;
46084;SDS011;31823;47.032;8.310;2022-09-09T16:28:48;0.77;;;0.70;;
46084;SDS011;31823;47.032;8.310;2022-09-09T16:31:18;2.20;;;1.20;;
46084;SDS011;31823;47.032;8.310;2022-09-09T16:33:45;2.63;;;0.82;;
46084;SDS011;31823;47.032;8.310;2022-09-09T16:36:13;6.53;;;0.80;;
46084;SDS011;31823;47.032;8.310;2022-09-09T16:38:40;2.25;;;0.80;;
46084;SDS011;31823;47.032;8.310;2022-09-09T16:41:09;3.17;;;0.70;;
46084;SDS011;31823;47.032;8.310;2022-09-09T16:43:35;1.33;;;0.70;;
46084;SDS011;31823;47.032;8.310;2022-09-09T16:46:15;1.67;;;0.70;;
46084;SDS011;31823;47.032;8.310;2022-09-09T16:48:43;10.75;;;1.17;;
46084;SDS011;31823;47.032;8.310;2022-09-09T16:51:14;3.72;;;0.63;;
46084;SDS011;31823;47.032;8.310;2022-09-09T16:53:42;1.33;;;0.80;;
46084;SDS011;31823;47.032;8.310;2022-09-09T16:56:18;3.28;;;0.90;;
46084;SDS011;31823;47.032;8.310;2022-09-09T16:58:50;1.67;;;0.98;;
46084;SDS011;31823;47.032;8.310;2022-09-09T17:01:17;4.63;;;1.63;;
46084;SDS011;31823;47.032;8.310;2022-09-09T17:03:43;5.93;;;1.00;;
46084;SDS011;31823;47.032;8.310;2022-09-09T17:06:13;2.40;;;0.90;;
46084;SDS011;31823;47.032;8.310;2022-09-09T17:08:40;1.95;;;1.08;;
46084;SDS011;31823;47.032;8.310;2022-09-09T17:11:16;1.63;;;0.93;;
46084;SDS011;31823;47.032;8.310;2022-09-09T17:13:43;0.70;;;0.70;;
46084;SDS011;31823;47.032;8.310;2022-09-09T17:16:10;2.00;;;0.93;;
46084;SDS011;31823;47.032;8.310;2022-09-09T17:18:37;1.05;;;0.90;;
46084;SDS011;31823;47.032;8.310;2022-09-09T17:21:04;0.98;;;0.98;;
46084;SDS011;31823;47.032;8.310;2022-09-09T17:23:33;3.13;;;1.50;;
46084;SDS011;31823;47.032;8.310;2022-09-09T17:25:59;1.85;;;0.85;;
46084;SDS011;31823;47.032;8.310;2022-09-09T17:28:25;1.15;;;0.93;;
46084;SDS011;31823;47.032;8.310;2022-09-09T17:30:56;2.67;;;1.25;;
46084;SDS011;31823;47.032;8.310;2022-09-09T17:33:26;2.15;;;0.85;;
46084;SDS011;31823;47.032;8.310;2022-09-09T17:35:55;3.03;;;1.30;;